Time;durP1;ratioP1;P1;durP2;ratioP2;P2;SDS_P1;SDS_P2;PMS_P1;PMS_P2;Temp;Humidity;BMP_temperature;BMP_pressure;BME280_temperature;BME280_humidity;BME280_pressure;Samples;Min_cycle;Max_cycle;Signal;HPM_P1;HPM_P2
2022/07/30 00:02:22;;;;;;;10.67;9.57;;;19.20;1.00;;;;;;4993658;28;20169;-68
2022/07/30 00:04:48;;;;;;;13.80;9.43;;;19.10;88.20;;;;;;5011282;28;20183;-68
2022/07/30 00:07:14;;;;;;;11.17;9.33;;;19.10;99.90;;;;;;5013701;28;20541;-68
2022/07/30 00:09:40;;;;;;;13.63;10.03;;;19.10;99.90;;;;;;5027056;28;20560;-67
2022/07/30 00:12:07;;;;;;;16.37;10.20;;;19.10;99.90;;;;;;5021309;28;20189;-67
2022/07/30 00:14:36;;;;;;;12.73;11.10;;;19.00;99.90;;;;;;5010424;28;20511;-68
2022/07/30 00:17:03;;;;;;;10.97;9.90;;;19.00;99.90;;;;;;5018190;28;20422;-68
2022/07/30 00:19:28;;;;;;;12.63;10.63;;;19.00;99.90;;;;;;5015966;28;20993;-68
2022/07/30 00:21:54;;;;;;;14.90;10.27;;;19.00;99.90;;;;;;5015560;28;20427;-68
2022/07/30 00:24:21;;;;;;;11.07;10.10;;;19.00;99.90;;;;;;5029438;28;20210;-68
2022/07/30 00:26:46;;;;;;;14.50;10.90;;;19.00;99.90;;;;;;5017368;28;20229;-67
2022/07/30 00:29:12;;;;;;;12.53;9.50;;;19.00;99.90;;;;;;5013412;28;20514;-67
2022/07/30 00:31:38;;;;;;;11.77;10.40;;;19.00;99.90;;;;;;5015862;28;20242;-67
2022/07/30 00:34:03;;;;;;;12.07;10.30;;;19.00;99.90;;;;;;5017216;28;20172;-68
2022/07/30 00:36:29;;;;;;;11.40;10.33;;;19.00;99.90;;;;;;5020266;28;20192;-67
2022/07/30 00:38:55;;;;;;;12.00;10.80;;;18.90;99.90;;;;;;5035777;28;20275;-68
2022/07/30 00:41:21;;;;;;;19.10;11.40;;;19.00;99.90;;;;;;4999762;28;20205;-68
2022/07/30 00:43:46;;;;;;;17.17;11.00;;;19.10;99.90;;;;;;5028593;28;20637;-68
2022/07/30 00:46:13;;;;;;;10.63;9.33;;;19.20;1.00;;;;;;5031251;28;20170;-69
2022/07/30 00:48:39;;;;;;;10.70;9.80;;;19.20;1.00;;;;;;5037540;28;20425;-68
2022/07/30 00:51:05;;;;;;;11.40;9.07;;;19.10;1.00;;;;;;5032476;28;20477;-68
2022/07/30 00:53:32;;;;;;;10.03;9.03;;;19.10;1.00;;;;;;5031616;28;20439;-68
2022/07/30 00:55:58;;;;;;;10.77;9.60;;;19.00;1.00;;;;;;5029522;28;20176;-68
2022/07/30 00:58:24;;;;;;;12.47;10.10;;;19.00;27.90;;;;;;5027373;28;20445;-68
2022/07/30 01:00:49;;;;;;;10.53;9.53;;;19.00;92.00;;;;;;5020063;28;20196;-68
2022/07/30 01:03:15;;;;;;;11.77;10.03;;;18.90;99.90;;;;;;5017998;28;20778;-68
2022/07/30 01:05:41;;;;;;;15.17;9.80;;;18.90;99.90;;;;;;5015111;28;20183;-68
2022/07/30 01:08:07;;;;;;;11.20;9.90;;;18.90;99.90;;;;;;5014132;28;20562;-68
2022/07/30 01:10:33;;;;;;;11.10;9.93;;;18.90;93.10;;;;;;5015114;28;20183;-68
2022/07/30 01:13:00;;;;;;;14.30;10.87;;;18.90;99.90;;;;;;5015065;28;20187;-68
2022/07/30 01:15:26;;;;;;;18.60;10.37;;;18.90;98.80;;;;;;5013718;28;20184;-68
2022/07/30 01:17:55;;;;;;;23.30;10.17;;;18.90;99.90;;;;;;5025931;28;20445;-68
2022/07/30 01:20:44;;;;;;;12.60;10.43;;;18.80;99.90;;;;;;5022257;28;20800;-68
2022/07/30 01:23:35;;;;;;;15.40;10.40;;;18.80;99.90;;;;;;5016388;28;20418;-68
2022/07/30 01:26:06;;;;;;;18.73;11.13;;;18.80;99.90;;;;;;5021413;28;20557;-68
2022/07/30 01:28:41;;;;;;;11.30;10.17;;;18.80;99.90;;;;;;5012755;28;21293;-68
2022/07/30 01:31:08;;;;;;;14.73;9.90;;;18.70;99.90;;;;;;5009702;28;20537;-67
2022/07/30 01:33:37;;;;;;;12.53;10.20;;;18.70;1.00;;;;;;5013109;28;20914;-68
2022/07/30 01:36:06;;;;;;;10.93;9.77;;;18.70;1.00;;;;;;4995768;28;20427;-67
2022/07/30 01:38:32;;;;;;;10.30;9.23;;;18.70;99.90;;;;;;5012386;28;20873;-68
2022/07/30 01:40:59;;;;;;;11.00;9.90;;;18.60;1.00;;;;;;5013071;28;20441;-68
2022/07/30 01:43:27;;;;;;;14.23;9.80;;;18.60;1.00;;;;;;5012680;28;20423;-68
2022/07/30 01:45:54;;;;;;;16.83;12.80;;;18.60;1.00;;;;;;5025806;28;20495;-68
2022/07/30 01:48:24;;;;;;;11.67;10.47;;;18.60;1.00;;;;;;5025930;28;20438;-68
2022/07/30 01:50:53;;;;;;;10.53;9.30;;;18.70;1.00;;;;;;5026142;28;20440;-68
2022/07/30 01:53:24;;;;;;;15.37;10.03;;;18.70;99.90;;;;;;5027301;28;20534;-68
2022/07/30 01:55:50;;;;;;;11.83;9.63;;;18.70;99.90;;;;;;5014783;28;20963;-68
2022/07/30 01:58:20;;;;;;;17.70;10.47;;;18.60;1.00;;;;;;5012041;28;20454;-68
2022/07/30 02:00:48;;;;;;;11.00;9.90;;;18.60;1.00;;;;;;5013472;28;20451;-68
2022/07/30 02:03:14;;;;;;;10.83;9.80;;;18.70;99.90;;;;;;5012911;28;20503;-68
2022/07/30 02:05:41;;;;;;;18.10;9.97;;;18.70;99.90;;;;;;5023742;28;20518;-68
2022/07/30 02:08:36;;;;;;;10.57;9.70;;;18.70;99.90;;;;;;5005673;28;20274;-68
2022/07/30 02:11:09;;;;;;;16.97;10.40;;;18.60;99.90;;;;;;5005850;28;20427;-68
2022/07/30 02:13:49;;;;;;;13.27;10.03;;;18.60;99.90;;;;;;5014278;28;20457;-68
2022/07/30 02:16:29;;;;;;;14.33;10.70;;;18.60;99.90;;;;;;5024123;28;20459;-68
2022/07/30 02:19:05;;;;;;;12.03;9.83;;;18.60;99.90;;;;;;5025183;28;20807;-67
2022/07/30 02:21:37;;;;;;;10.63;9.57;;;18.60;99.90;;;;;;5021557;28;20975;-67
2022/07/30 02:24:06;;;;;;;23.93;11.80;;;18.50;1.00;;;;;;5024841;28;20426;-68
2022/07/30 02:26:34;;;;;;;13.90;10.73;;;18.50;1.00;;;;;;5020923;28;20418;-67
2022/07/30 02:29:01;;;;;;;13.87;10.97;;;18.40;1.00;;;;;;5026009;28;20816;-67
2022/07/30 02:31:30;;;;;;;17.40;11.60;;;18.40;1.00;;;;;;5021692;28;20430;-67
2022/07/30 02:33:59;;;;;;;14.83;11.07;;;18.40;1.00;;;;;;5012357;28;20418;-68
2022/07/30 02:36:27;;;;;;;14.00;11.67;;;18.50;1.00;;;;;;5011728;28;21111;-68
2022/07/30 02:38:55;;;;;;;12.03;10.83;;;18.40;1.00;;;;;;5013534;28;20471;-68
2022/07/30 02:41:23;;;;;;;12.50;11.30;;;18.40;1.00;;;;;;5025553;28;20857;-67
2022/07/30 02:43:51;;;;;;;11.83;10.83;;;18.40;1.00;;;;;;5023947;28;20423;-69
2022/07/30 02:46:18;;;;;;;13.90;12.50;;;18.40;1.00;;;;;;5013214;28;20948;-68
2022/07/30 02:48:45;;;;;;;14.60;10.90;;;18.40;1.00;;;;;;5010805;28;20948;-69
2022/07/30 02:51:15;;;;;;;17.77;12.30;;;18.40;1.00;;;;;;5011532;28;20451;-69
2022/07/30 02:53:44;;;;;;;14.77;12.40;;;18.40;1.00;;;;;;5026062;28;20997;-67
2022/07/30 02:56:11;;;;;;;13.77;12.37;;;18.30;1.00;;;;;;5016285;28;20423;-67
2022/07/30 02:58:38;;;;;;;13.43;12.33;;;18.30;1.00;;;;;;5011222;28;20486;-66
2022/07/30 03:01:05;;;;;;;15.97;12.00;;;18.30;1.00;;;;;;4994634;28;20458;-67
2022/07/30 03:03:32;;;;;;;18.10;12.87;;;18.30;1.00;;;;;;5010550;28;20518;-67
2022/07/30 03:05:59;;;;;;;24.93;12.93;;;18.30;1.00;;;;;;5012367;28;20497;-67
2022/07/30 03:08:27;;;;;;;13.73;11.30;;;18.30;1.00;;;;;;5010440;28;20466;-69
2022/07/30 03:10:54;;;;;;;15.17;12.70;;;18.30;1.00;;;;;;5012345;28;20539;-67
2022/07/30 03:13:21;;;;;;;14.47;11.93;;;18.30;1.00;;;;;;5011133;28;20743;-67
2022/07/30 03:15:49;;;;;;;65.20;15.00;;;18.30;1.00;;;;;;5012242;28;20461;-68
2022/07/30 03:18:17;;;;;;;16.43;11.73;;;18.20;1.00;;;;;;5024320;28;20847;-68
2022/07/30 03:20:49;;;;;;;17.60;12.10;;;18.20;1.00;;;;;;5023392;28;20454;-68
2022/07/30 03:23:19;;;;;;;29.77;13.37;;;18.10;1.00;;;;;;5006141;28;20438;-68
2022/07/30 03:25:49;;;;;;;20.37;12.80;;;18.20;1.00;;;;;;5015389;28;20418;-69
2022/07/30 03:28:17;;;;;;;14.33;11.80;;;18.20;1.00;;;;;;5021513;28;20553;-68
2022/07/30 03:30:43;;;;;;;23.50;13.23;;;18.20;1.00;;;;;;5011588;28;20430;-69
2022/07/30 03:33:11;;;;;;;17.23;12.60;;;18.20;1.00;;;;;;5015168;28;20509;-67
2022/07/30 03:35:37;;;;;;;17.47;12.23;;;18.20;1.00;;;;;;5010385;28;20423;-69
2022/07/30 03:38:03;;;;;;;15.97;11.90;;;18.30;1.00;;;;;;5017910;28;20543;-68
2022/07/30 03:40:31;;;;;;;17.23;11.80;;;18.30;1.00;;;;;;5015506;28;20465;-68
2022/07/30 03:42:57;;;;;;;16.07;11.77;;;18.30;99.90;;;;;;5017049;28;20525;-68
2022/07/30 03:45:24;;;;;;;14.40;11.57;;;18.20;1.00;;;;;;5022286;28;20879;-67
2022/07/30 03:47:50;;;;;;;41.37;13.90;;;18.20;1.00;;;;;;5023759;28;20508;-67
2022/07/30 03:50:16;;;;;;;44.87;14.40;;;18.30;99.90;;;;;;5019384;28;20419;-68
2022/07/30 03:52:42;;;;;;;25.33;14.67;;;18.30;99.90;;;;;;5023986;28;21035;-68
2022/07/30 03:55:10;;;;;;;31.50;14.20;;;18.30;99.90;;;;;;5022460;28;20227;-68
2022/07/30 03:57:36;;;;;;;26.47;12.40;;;18.30;99.90;;;;;;5015424;28;20464;-66
2022/07/30 04:00:06;;;;;;;13.20;10.90;;;18.30;99.90;;;;;;5016576;28;20935;-68
2022/07/30 04:02:43;;;;;;;14.93;11.60;;;18.30;99.90;;;;;;5010748;28;20160;-67
2022/07/30 04:05:14;;;;;;;12.97;11.53;;;18.30;99.90;;;;;;5025296;28;20411;-68
2022/07/30 04:07:40;;;;;;;16.47;12.07;;;18.40;99.90;;;;;;5021650;28;20455;-68
2022/07/30 04:10:07;;;;;;;25.43;12.90;;;18.50;3.00;;;;;;5027058;28;20594;-68
2022/07/30 04:12:33;;;;;;;15.67;12.77;;;18.40;99.90;;;;;;5006798;28;20870;-68
2022/07/30 04:14:59;;;;;;;22.27;13.27;;;18.40;99.90;;;;;;5029311;28;20889;-67
2022/07/30 04:17:32;;;;;;;37.67;13.87;;;18.40;99.90;;;;;;5027652;28;20482;-67
2022/07/30 04:20:22;;;;;;;38.63;13.13;;;18.40;1.00;;;;;;5026165;28;20283;-68
2022/07/30 04:22:49;;;;;;;25.73;12.80;;;18.40;5.50;;;;;;5016804;28;20441;-68
2022/07/30 04:25:15;;;;;;;20.60;11.73;;;18.30;99.90;;;;;;5020078;28;20423;-68
2022/07/30 04:27:41;;;;;;;25.80;12.00;;;18.20;99.90;;;;;;5010293;28;20447;-69
2022/07/30 04:30:08;;;;;;;29.60;14.50;;;18.20;99.90;;;;;;5010900;28;20447;-68
2022/07/30 04:32:35;;;;;;;21.73;12.70;;;18.30;99.90;;;;;;5009292;28;20590;-68
2022/07/30 04:35:02;;;;;;;20.53;11.13;;;18.20;99.90;;;;;;5011544;28;20499;-69
2022/07/30 04:37:28;;;;;;;28.93;11.20;;;18.30;39.40;;;;;;5005999;28;20446;-68
2022/07/30 04:39:56;;;;;;;27.73;12.27;;;18.30;1.00;;;;;;5010948;28;20455;-69
2022/07/30 04:42:24;;;;;;;29.47;12.87;;;18.30;1.00;;;;;;5005521;28;20423;-69
2022/07/30 04:44:49;;;;;;;22.63;11.77;;;18.40;99.90;;;;;;5011231;28;20446;-68
2022/07/30 04:47:19;;;;;;;33.70;11.40;;;18.40;1.00;;;;;;5010259;28;20439;-69
2022/07/30 04:49:46;;;;;;;18.53;10.20;;;18.50;1.00;;;;;;5010736;28;20238;-68
2022/07/30 04:52:13;;;;;;;27.57;11.10;;;18.50;99.90;;;;;;5020547;28;20443;-68
2022/07/30 04:54:50;;;;;;;17.50;10.13;;;18.80;1.00;;;;;;5008954;28;20434;-69
2022/07/30 04:57:17;;;;;;;22.10;9.80;;;19.30;1.00;;;;;;5007730;28;20423;-69
2022/07/30 04:59:43;;;;;;;28.60;10.27;;;19.60;99.90;;;;;;5013981;28;20815;-68
2022/07/30 05:02:10;;;;;;;44.03;11.40;;;20.00;1.00;;;;;;5014536;28;20411;-69
2022/07/30 05:04:37;;;;;;;74.00;14.07;;;20.30;99.90;;;;;;5020883;28;20749;-68
2022/07/30 05:07:05;;;;;;;27.80;10.17;;;20.60;99.90;;;;;;5013736;28;20441;-68
2022/07/30 05:09:32;;;;;;;24.73;10.83;;;20.80;1.00;;;;;;5013854;28;20424;-68
2022/07/30 05:11:58;;;;;;;43.53;10.80;;;20.90;1.00;;;;;;5015318;28;20464;-68
2022/07/30 05:14:26;;;;;;;25.30;10.60;;;21.00;1.00;;;;;;5009243;28;21037;-68
2022/07/30 05:16:52;;;;;;;36.90;11.70;;;21.20;1.00;;;;;;5019354;28;20506;-68
2022/07/30 05:19:18;;;;;;;36.93;11.10;;;21.30;1.00;;;;;;5012375;28;20535;-68
2022/07/30 05:21:45;;;;;;;26.70;10.10;;;21.40;1.00;;;;;;5014580;28;20816;-69
2022/07/30 05:24:10;;;;;;;27.67;9.40;;;21.30;1.00;;;;;;5014394;28;20611;-69
2022/07/30 05:26:37;;;;;;;49.87;10.73;;;21.20;1.00;;;;;;5012144;28;20503;-68
2022/07/30 05:29:03;;;;;;;34.90;11.30;;;21.40;1.00;;;;;;5013778;28;20203;-68
2022/07/30 05:31:29;;;;;;;33.43;10.40;;;21.50;1.00;;;;;;5014296;28;20458;-67
2022/07/30 05:33:54;;;;;;;31.73;9.67;;;21.70;1.00;;;;;;5015131;28;20916;-68
2022/07/30 05:36:20;;;;;;;37.63;11.33;;;21.80;1.00;;;;;;5013940;28;20172;-68
2022/07/30 05:38:47;;;;;;;32.10;10.30;;;21.90;1.00;;;;;;5012670;28;20212;-69
2022/07/30 05:41:13;;;;;;;35.30;10.40;;;22.00;1.00;;;;;;5013757;28;20671;-69
2022/07/30 05:43:39;;;;;;;40.77;10.80;;;22.10;1.00;;;;;;5023757;28;20479;-68
2022/07/30 05:46:04;;;;;;;27.13;10.37;;;22.10;1.00;;;;;;5025648;28;20176;-69
2022/07/30 05:48:34;;;;;;;47.37;11.30;;;22.20;1.00;;;;;;5011223;28;20270;-68
2022/07/30 05:51:02;;;;;;;19.57;8.27;;;22.40;1.00;;;;;;5000784;28;20656;-68
2022/07/30 05:53:28;;;;;;;43.37;11.03;;;22.50;1.00;;;;;;5012274;28;20881;-68
2022/07/30 05:55:54;;;;;;;41.40;10.47;;;22.60;1.00;;;;;;5023705;28;20414;-68
2022/07/30 05:58:19;;;;;;;17.30;8.17;;;22.70;99.90;;;;;;5030003;28;20278;-68
2022/07/30 06:00:45;;;;;;;26.43;10.13;;;22.80;99.90;;;;;;5024936;28;20196;-68
2022/07/30 06:03:11;;;;;;;47.87;10.60;;;22.80;99.90;;;;;;5010730;28;20581;-68
2022/07/30 06:05:37;;;;;;;30.60;10.20;;;23.00;99.90;;;;;;5008963;28;20220;-68
2022/07/30 06:08:03;;;;;;;31.30;10.40;;;23.10;99.90;;;;;;5010047;28;20215;-69
2022/07/30 06:10:30;;;;;;;18.73;9.67;;;23.30;99.90;;;;;;4992532;28;20477;-68
2022/07/30 06:12:56;;;;;;;38.67;9.70;;;23.40;99.90;;;;;;5010743;28;20522;-68
2022/07/30 06:15:21;;;;;;;51.13;12.83;;;23.40;99.90;;;;;;5010584;28;20499;-68
2022/07/30 06:17:47;;;;;;;48.83;11.63;;;23.50;99.90;;;;;;5010428;28;20523;-68
2022/07/30 06:20:15;;;;;;;23.93;9.90;;;23.70;99.90;;;;;;5009407;28;20207;-68
2022/07/30 06:22:41;;;;;;;37.53;11.00;;;23.80;99.90;;;;;;5009726;28;20766;-67
2022/07/30 06:25:08;;;;;;;33.43;11.03;;;23.80;99.90;;;;;;5010469;28;20412;-69
2022/07/30 06:27:35;;;;;;;54.87;12.30;;;23.90;99.90;;;;;;5010224;28;20423;-67
2022/07/30 06:30:05;;;;;;;24.93;8.40;;;24.10;99.90;;;;;;5010356;28;20415;-68
2022/07/30 06:32:31;;;;;;;33.33;10.93;;;24.20;99.90;;;;;;5010232;28;20723;-68
2022/07/30 06:34:56;;;;;;;21.30;8.80;;;24.00;99.90;;;;;;5012745;28;20433;-68
2022/07/30 06:37:22;;;;;;;16.30;7.40;;;24.20;99.90;;;;;;5020548;28;20261;-68
2022/07/30 06:39:48;;;;;;;36.73;10.47;;;24.30;99.90;;;;;;5024186;28;20275;-68
2022/07/30 06:42:14;;;;;;;28.53;9.10;;;24.40;99.90;;;;;;5018115;28;20227;-68
2022/07/30 06:44:40;;;;;;;21.33;8.63;;;24.50;99.90;;;;;;5020319;28;20187;-67
2022/07/30 06:47:06;;;;;;;26.27;8.03;;;24.60;99.90;;;;;;5023401;28;20176;-65
2022/07/30 06:49:32;;;;;;;15.20;8.80;;;24.70;99.90;;;;;;5019730;28;20763;-66
2022/07/30 06:51:58;;;;;;;33.33;9.27;;;24.90;99.90;;;;;;5008307;28;20180;-66
2022/07/30 06:54:24;;;;;;;30.40;7.97;;;24.90;99.90;;;;;;5026570;28;20419;-68
2022/07/30 06:56:49;;;;;;;30.97;9.30;;;25.00;99.90;;;;;;5025529;28;20207;-67
2022/07/30 06:59:15;;;;;;;38.20;10.13;;;25.10;99.90;;;;;;5014141;28;20230;-67
2022/07/30 07:01:41;;;;;;;49.67;11.27;;;25.20;99.90;;;;;;5011977;28;20229;-68
2022/07/30 07:04:07;;;;;;;39.83;9.70;;;25.10;99.90;;;;;;5024205;28;20204;-68
2022/07/30 07:06:33;;;;;;;28.00;9.10;;;25.30;99.90;;;;;;5018060;28;20354;-69
2022/07/30 07:08:59;;;;;;;33.40;10.07;;;25.30;99.90;;;;;;5009936;28;20684;-68
2022/07/30 07:11:25;;;;;;;33.50;9.10;;;25.40;99.90;;;;;;5012607;28;20267;-68
2022/07/30 07:13:50;;;;;;;28.20;9.17;;;25.50;99.90;;;;;;5024983;28;20517;-68
2022/07/30 07:16:20;;;;;;;28.33;8.93;;;25.50;99.90;;;;;;5012562;28;20209;-68
2022/07/30 07:18:47;;;;;;;38.20;9.33;;;25.50;99.90;;;;;;5000133;28;20201;-67
2022/07/30 07:21:14;;;;;;;27.67;8.87;;;25.70;99.90;;;;;;5016036;28;20884;-68
2022/07/30 07:23:40;;;;;;;33.20;8.77;;;25.70;99.90;;;;;;5003395;28;20434;-68
2022/07/30 07:26:05;;;;;;;38.63;9.40;;;25.80;99.90;;;;;;5024368;28;20503;-69
2022/07/30 07:28:31;;;;;;;20.70;9.90;;;26.00;99.90;;;;;;5008518;28;20273;-66
2022/07/30 07:30:57;;;;;;;32.33;10.13;;;25.80;99.90;;;;;;5005095;28;20271;-66
2022/07/30 07:33:22;;;;;;;31.30;11.00;;;25.60;99.90;;;;;;5013650;28;20180;-69
2022/07/30 07:35:48;;;;;;;114.67;16.37;;;25.60;99.90;;;;;;5015415;28;20168;-68
2022/07/30 07:38:14;;;;;;;18.03;7.27;;;25.60;99.90;;;;;;5014104;28;20633;-68
2022/07/30 07:40:40;;;;;;;37.63;10.40;;;25.70;99.90;;;;;;5008993;28;20276;-69
2022/07/30 07:43:05;;;;;;;17.63;7.73;;;26.00;99.90;;;;;;5012909;28;20562;-67
2022/07/30 07:45:31;;;;;;;30.90;7.40;;;26.00;99.90;;;;;;5014103;28;20176;-66
2022/07/30 07:47:57;;;;;;;21.60;7.13;;;26.00;99.90;;;;;;5016068;28;20199;-68
2022/07/30 07:50:23;;;;;;;18.60;5.67;;;26.20;99.90;;;;;;5008872;28;20173;-67
2022/07/30 07:52:49;;;;;;;39.93;8.03;;;26.40;99.90;;;;;;5000188;28;20210;-67
2022/07/30 07:55:15;;;;;;;17.30;5.97;;;26.10;99.90;;;;;;5023375;28;20480;-67
2022/07/30 07:57:42;;;;;;;12.73;6.10;;;26.10;99.90;;;;;;5023882;28;20651;-67
2022/07/30 08:00:10;;;;;;;26.07;6.70;;;26.20;99.90;;;;;;5013348;28;20195;-66
2022/07/30 08:02:36;;;;;;;25.80;6.93;;;26.30;99.90;;;;;;5015450;28;20923;-66
2022/07/30 08:05:04;;;;;;;31.30;6.20;;;26.50;99.90;;;;;;5004947;28;20465;-67
2022/07/30 08:07:30;;;;;;;22.17;5.67;;;26.50;99.90;;;;;;5013975;28;20691;-66
2022/07/30 08:09:57;;;;;;;8.40;4.87;;;26.70;99.90;;;;;;5010759;28;20431;-67
2022/07/30 08:12:23;;;;;;;14.80;5.50;;;26.20;99.90;;;;;;5017549;28;20946;-67
2022/07/30 08:14:49;;;;;;;15.83;5.60;;;26.30;99.90;;;;;;5008720;28;20430;-67
2022/07/30 08:17:15;;;;;;;19.00;5.50;;;26.50;99.90;;;;;;5021787;28;20175;-65
2022/07/30 08:19:40;;;;;;;32.93;5.80;;;26.90;99.90;;;;;;5023651;28;20171;-66
2022/07/30 08:22:06;;;;;;;41.03;8.50;;;27.10;99.90;;;;;;5010035;28;20546;-67
2022/07/30 08:24:33;;;;;;;20.27;6.87;;;27.10;99.90;;;;;;5013182;28;20171;-67
2022/07/30 08:26:58;;;;;;;26.43;5.77;;;27.40;99.90;;;;;;5022243;28;20407;-65
2022/07/30 08:29:24;;;;;;;34.63;6.50;;;27.60;99.90;;;;;;5011491;28;20456;-66
2022/07/30 08:31:50;;;;;;;33.07;7.40;;;27.90;99.90;;;;;;5017722;28;20168;-66
2022/07/30 08:34:16;;;;;;;13.37;5.37;;;27.90;99.90;;;;;;5015824;28;20284;-66
2022/07/30 08:36:42;;;;;;;10.37;4.43;;;27.50;99.90;;;;;;5019985;28;20292;-68
2022/07/30 08:39:08;;;;;;;18.27;6.00;;;27.10;99.10;;;;;;5018207;28;20621;-68
2022/07/30 08:41:35;;;;;;;30.70;7.60;;;27.10;97.90;;;;;;4994300;28;20203;-67
2022/07/30 08:44:02;;;;;;;24.00;6.40;;;27.40;99.10;;;;;;5007096;28;20430;-68
2022/07/30 08:46:30;;;;;;;59.87;9.23;;;27.70;99.90;;;;;;5016238;28;20429;-69
2022/07/30 08:48:57;;;;;;;44.50;8.83;;;27.90;95.80;;;;;;5016297;28;20781;-69
2022/07/30 08:51:24;;;;;;;16.33;5.20;;;27.90;93.40;;;;;;5015885;28;20464;-69
2022/07/30 08:53:50;;;;;;;19.70;4.83;;;28.00;91.60;;;;;;5028254;28;20426;-69
2022/07/30 08:56:16;;;;;;;13.70;4.53;;;28.00;87.50;;;;;;5018025;28;20460;-68
2022/07/30 08:58:44;;;;;;;30.27;5.70;;;28.10;83.50;;;;;;5027628;28;20203;-70
2022/07/30 09:01:10;;;;;;;14.20;6.50;;;28.10;80.80;;;;;;5021814;28;20537;-69
2022/07/30 09:03:37;;;;;;;15.47;4.90;;;27.90;76.30;;;;;;5021867;28;20505;-69
2022/07/30 09:06:04;;;;;;;15.23;4.53;;;27.70;70.30;;;;;;5012470;28;20177;-69
2022/07/30 09:08:30;;;;;;;8.13;5.20;;;27.70;67.60;;;;;;5018340;28;20742;-69
2022/07/30 09:10:57;;;;;;;18.70;5.70;;;27.70;65.10;;;;;;5012468;28;20417;-69
2022/07/30 09:13:29;;;;;;;12.93;5.20;;;27.70;63.90;;;;;;5002078;28;20425;-68
2022/07/30 09:15:56;;;;;;;26.17;6.00;;;27.80;62.30;;;;;;5011396;28;20430;-67
2022/07/30 09:18:39;;;;;;;5.00;3.70;;;27.90;58.40;;;;;;5016798;28;20525;-67
2022/07/30 09:21:23;;;;;;;8.43;4.50;;;27.50;60.20;;;;;;5012726;28;20437;-69
2022/07/30 09:23:56;;;;;;;7.03;3.60;;;27.10;55.20;;;;;;5019946;28;20425;-66
2022/07/30 09:26:22;;;;;;;19.33;5.03;;;27.00;52.60;;;;;;5027354;28;20424;-66
2022/07/30 09:28:48;;;;;;;29.90;5.77;;;26.70;52.80;;;;;;5018273;28;20430;-65
2022/07/30 09:31:15;;;;;;;18.03;5.20;;;26.60;51.30;;;;;;5022584;28;20192;-67
2022/07/30 09:33:43;;;;;;;8.07;4.27;;;26.50;51.40;;;;;;4999416;28;20184;-67
2022/07/30 09:36:15;;;;;;;31.80;6.70;;;26.70;51.60;;;;;;5007594;28;20447;-68
2022/07/30 09:38:54;;;;;;;31.37;5.80;;;27.10;51.70;;;;;;5009676;28;20454;-67
2022/07/30 09:41:37;;;;;;;15.53;5.23;;;27.00;50.80;;;;;;5017943;28;20450;-67
2022/07/30 09:44:05;;;;;;;26.73;6.30;;;26.50;49.10;;;;;;5004203;28;20415;-68
2022/07/30 09:46:51;;;;;;;17.53;5.67;;;26.60;49.70;;;;;;5009815;28;20415;-68
2022/07/30 09:49:20;;;;;;;16.27;5.20;;;26.70;49.80;;;;;;5016653;28;20537;-67
2022/07/30 09:51:46;;;;;;;8.40;5.00;;;26.40;48.60;;;;;;5007742;28;20431;-68
2022/07/30 09:54:12;;;;;;;17.53;6.40;;;26.40;47.60;;;;;;5002260;28;20529;-67
2022/07/30 09:56:38;;;;;;;21.50;6.17;;;26.70;48.70;;;;;;5010941;28;20415;-66
2022/07/30 09:59:06;;;;;;;13.57;5.50;;;26.80;48.60;;;;;;5010798;28;20426;-67
2022/07/30 10:02:04;;;;;;;30.33;6.33;;;27.00;49.20;;;;;;5025130;28;20458;-67
2022/07/30 10:04:31;;;;;;;25.60;6.03;;;27.40;48.20;;;;;;4971418;28;20418;-67
2022/07/30 10:07:00;;;;;;;13.00;5.57;;;27.50;47.30;;;;;;5027995;28;20417;-65
2022/07/30 10:09:31;;;;;;;9.17;5.73;;;27.30;45.80;;;;;;5018678;28;20471;-68
2022/07/30 10:12:01;;;;;;;6.27;4.67;;;27.40;45.40;;;;;;5018943;28;20948;-67
2022/07/30 10:14:35;;;;;;;10.93;4.83;;;27.30;45.20;;;;;;5014237;28;20539;-67
2022/07/30 10:17:01;;;;;;;18.60;5.10;;;27.40;44.50;;;;;;5021602;28;20466;-66
2022/07/30 10:19:28;;;;;;;34.50;7.20;;;27.70;44.70;;;;;;5010184;28;20441;-67
2022/07/30 10:21:56;;;;;;;41.97;8.00;;;27.70;44.20;;;;;;5017408;28;20660;-67
2022/07/30 10:24:24;;;;;;;5.70;5.10;;;27.50;43.00;;;;;;5012716;28;20473;-66
2022/07/30 10:26:52;;;;;;;8.47;4.57;;;27.30;42.40;;;;;;5018196;28;20876;-67
2022/07/30 10:29:19;;;;;;;9.57;4.63;;;27.40;42.60;;;;;;4999576;28;20431;-66
2022/07/30 10:31:46;;;;;;;5.90;5.30;;;27.30;42.30;;;;;;5017785;28;20785;-68
2022/07/30 10:34:13;;;;;;;8.77;5.30;;;27.40;42.10;;;;;;5018286;28;20483;-66
2022/07/30 10:36:47;;;;;;;6.13;5.50;;;27.30;41.70;;;;;;5016866;28;20534;-69
2022/07/30 10:39:17;;;;;;;43.27;8.70;;;27.40;41.90;;;;;;5016425;28;20438;-67
2022/07/30 10:42:03;;;;;;;12.23;6.20;;;27.40;41.90;;;;;;5005932;28;20449;-67
2022/07/30 10:44:56;;;;;;;15.73;5.80;;;27.40;41.70;;;;;;5013309;28;20829;-67
2022/07/30 10:47:24;;;;;;;9.60;5.03;;;27.40;41.60;;;;;;5015544;28;20565;-67
2022/07/30 10:50:05;;;;;;;21.60;4.93;;;27.50;40.80;;;;;;5021374;28;20520;-67
2022/07/30 10:52:49;;;;;;;22.40;7.17;;;27.50;40.50;;;;;;5009115;28;20419;-67
2022/07/30 10:55:23;;;;;;;5.20;4.70;;;27.50;40.50;;;;;;5012458;28;20982;-67
2022/07/30 10:58:08;;;;;;;9.40;4.90;;;27.50;40.60;;;;;;5019740;28;20462;-67
2022/07/30 11:00:55;;;;;;;17.57;5.00;;;27.60;40.90;;;;;;5008039;28;20450;-68
2022/07/30 11:03:25;;;;;;;22.70;6.50;;;27.70;40.60;;;;;;5014389;28;20429;-67
2022/07/30 11:06:16;;;;;;;17.30;6.50;;;27.90;40.20;;;;;;5024256;28;20407;-67
2022/07/30 11:08:47;;;;;;;8.43;4.33;;;27.80;38.80;;;;;;5000577;28;20454;-68
2022/07/30 11:11:36;;;;;;;14.20;4.50;;;27.70;37.50;;;;;;5026259;28;20426;-68
2022/07/30 11:14:02;;;;;;;18.80;5.07;;;27.50;37.10;;;;;;5016909;28;20528;-67
2022/07/30 11:16:33;;;;;;;5.60;4.10;;;27.30;51.40;;;;;;5019665;28;20614;-68
2022/07/30 11:19:02;;;;;;;18.57;5.33;;;27.40;39.80;;;;;;5020880;28;20202;-68
2022/07/30 11:21:30;;;;;;;14.00;5.20;;;27.00;39.40;;;;;;5017937;28;20457;-67
2022/07/30 11:23:58;;;;;;;19.77;4.90;;;27.20;38.40;;;;;;5025531;28;20512;-67
2022/07/30 11:26:40;;;;;;;14.73;5.13;;;27.70;38.20;;;;;;5039470;28;20405;-65
2022/07/30 11:29:07;;;;;;;15.70;5.03;;;27.90;38.70;;;;;;5036891;28;20465;-67
2022/07/30 11:31:36;;;;;;;17.03;5.37;;;27.90;37.90;;;;;;5027644;28;20930;-68
2022/07/30 11:34:19;;;;;;;14.33;4.80;;;28.10;38.30;;;;;;5025859;28;20421;-67
2022/07/30 11:37:14;;;;;;;11.10;4.40;;;28.00;37.50;;;;;;5008542;28;20429;-67
2022/07/30 11:40:03;;;;;;;15.47;4.80;;;27.70;35.60;;;;;;4987286;28;20519;-66
2022/07/30 11:42:30;;;;;;;25.97;5.50;;;27.30;33.20;;;;;;4987344;28;20433;-67
2022/07/30 11:45:16;;;;;;;17.77;4.80;;;27.30;33.20;;;;;;5015113;28;20427;-66
2022/07/30 11:47:47;;;;;;;22.93;4.93;;;27.30;32.20;;;;;;5013319;28;20817;-67
2022/07/30 11:50:21;;;;;;;30.70;5.17;;;27.20;32.60;;;;;;5016301;28;20473;-68
2022/07/30 11:52:50;;;;;;;7.20;4.20;;;27.40;32.40;;;;;;5007763;28;20426;-68
2022/07/30 11:55:37;;;;;;;12.17;4.43;;;27.60;33.20;;;;;;5022788;28;20488;-66
2022/07/30 11:58:05;;;;;;;7.83;4.03;;;27.40;31.00;;;;;;5016147;28;20430;-67
2022/07/30 12:00:40;;;;;;;22.97;4.23;;;27.50;30.20;;;;;;5008447;28;20460;-68
2022/07/30 12:03:14;;;;;;;7.80;4.13;;;27.50;29.20;;;;;;5018888;28;20828;-68
2022/07/30 12:05:40;;;;;;;6.43;4.10;;;27.70;29.10;;;;;;5017951;28;20788;-68
2022/07/30 12:08:07;;;;;;;4.67;3.80;;;27.60;28.60;;;;;;5007078;28;20462;-70
2022/07/30 12:10:38;;;;;;;24.20;4.80;;;27.50;28.00;;;;;;5013767;28;20426;-68
2022/07/30 12:13:08;;;;;;;22.80;4.63;;;27.70;27.80;;;;;;5026105;28;20413;-68
2022/07/30 12:15:39;;;;;;;4.57;3.90;;;27.60;26.20;;;;;;5013320;28;20413;-67
2022/07/30 12:18:05;;;;;;;14.97;3.60;;;27.60;25.60;;;;;;5006590;28;20446;-67
2022/07/30 12:20:30;;;;;;;9.30;3.50;;;27.70;25.80;;;;;;5006929;28;20823;-68
2022/07/30 12:22:56;;;;;;;9.37;3.43;;;27.80;25.70;;;;;;5007396;28;20681;-69
2022/07/30 12:25:22;;;;;;;23.80;4.30;;;27.90;25.60;;;;;;5016664;28;20175;-69
2022/07/30 12:27:49;;;;;;;5.57;3.30;;;27.90;25.00;;;;;;5011080;28;20558;-68
2022/07/30 12:30:16;;;;;;;14.67;5.10;;;28.00;25.60;;;;;;5021408;28;20182;-68
2022/07/30 12:32:46;;;;;;;21.00;4.87;;;28.10;24.50;;;;;;5012241;28;20422;-68
2022/07/30 12:35:12;;;;;;;10.43;4.17;;;28.10;23.50;;;;;;5006964;28;20437;-69
2022/07/30 12:37:38;;;;;;;6.40;4.00;;;28.10;23.20;;;;;;5007133;28;20439;-67
2022/07/30 12:40:15;;;;;;;18.53;4.70;;;28.10;23.20;;;;;;5024184;28;20516;-68
2022/07/30 12:42:51;;;;;;;16.67;3.67;;;27.90;21.60;;;;;;5008942;28;20414;-68
2022/07/30 12:45:31;;;;;;;15.20;3.63;;;27.80;21.60;;;;;;5007161;28;20415;-69